Time;durP1;ratioP1;P1;durP2;ratioP2;P2;SDS_P1;SDS_P2;PMS_P1;PMS_P2;Temp;Humidity;BMP_temperature;BMP_pressure;BME280_temperature;BME280_humidity;BME280_pressure;Samples;Min_cycle;Max_cycle;Signal;HPM_P1;HPM_P2
2023/08/07 00:02:10;;;;;;;1.67;1.03;;;12.50;99.90;;;;;;4963256;28;20187;-34
2023/08/07 00:04:36;;;;;;;2.90;1.10;;;12.50;99.90;;;;;;4969907;28;20279;-33
2023/08/07 00:07:02;;;;;;;1.10;1.00;;;12.50;99.90;;;;;;4953868;28;20191;-33
2023/08/07 00:09:28;;;;;;;1.57;1.00;;;12.50;99.90;;;;;;4954478;28;20203;-33
2023/08/07 00:11:53;;;;;;;1.80;1.17;;;12.50;99.90;;;;;;4971831;28;20267;-33
2023/08/07 00:14:19;;;;;;;2.10;1.10;;;12.50;99.90;;;;;;4957284;28;20213;-34
2023/08/07 00:16:45;;;;;;;2.43;1.40;;;12.50;99.90;;;;;;4957617;28;20188;-34
2023/08/07 00:19:11;;;;;;;1.90;1.20;;;12.50;99.90;;;;;;4958494;28;20216;-34
2023/08/07 00:21:37;;;;;;;3.60;1.40;;;12.50;99.90;;;;;;4977629;28;20189;-34
2023/08/07 00:24:03;;;;;;;1.13;1.07;;;12.50;99.90;;;;;;4957117;28;20210;-35
2023/08/07 00:26:31;;;;;;;3.53;1.30;;;12.50;99.90;;;;;;4956440;28;20188;-33
2023/08/07 00:28:58;;;;;;;2.00;1.27;;;12.50;99.90;;;;;;4965688;28;20246;-33
2023/08/07 00:31:24;;;;;;;3.73;1.37;;;12.40;99.90;;;;;;4957206;28;20307;-34
2023/08/07 00:33:53;;;;;;;1.63;1.40;;;12.40;99.90;;;;;;4970091;28;20183;-34
2023/08/07 00:36:19;;;;;;;1.40;1.00;;;12.40;99.90;;;;;;4956927;28;20197;-35
2023/08/07 00:38:45;;;;;;;1.50;1.20;;;12.40;99.90;;;;;;4962306;28;20191;-35
2023/08/07 00:41:11;;;;;;;3.30;1.30;;;12.40;99.90;;;;;;4960016;28;20201;-34
2023/08/07 00:43:37;;;;;;;1.50;1.10;;;12.40;99.90;;;;;;4973057;28;20180;-33
2023/08/07 00:46:03;;;;;;;1.63;1.40;;;12.40;99.90;;;;;;4956939;28;20192;-33
2023/08/07 00:48:29;;;;;;;1.90;1.00;;;12.40;99.90;;;;;;4956989;28;20215;-35
2023/08/07 00:50:56;;;;;;;1.20;1.10;;;12.40;99.90;;;;;;4955673;28;20220;-34
2023/08/07 00:53:22;;;;;;;2.43;1.40;;;12.40;99.90;;;;;;4955779;28;20177;-33
2023/08/07 00:55:48;;;;;;;2.03;1.10;;;12.40;99.90;;;;;;4956341;28;20249;-34
2023/08/07 00:58:14;;;;;;;2.23;1.07;;;12.30;99.90;;;;;;4957844;28;20192;-33
2023/08/07 01:00:42;;;;;;;1.93;1.33;;;12.30;99.90;;;;;;4960886;28;20234;-34
2023/08/07 01:03:08;;;;;;;1.67;1.10;;;12.30;99.90;;;;;;4956058;28;20198;-33
2023/08/07 01:05:34;;;;;;;3.93;1.37;;;12.30;99.90;;;;;;4973989;28;20184;-35
2023/08/07 01:08:01;;;;;;;3.37;1.23;;;12.30;99.90;;;;;;4972735;28;20292;-35
2023/08/07 01:11:06;;;;;;;1.73;1.40;;;12.30;99.90;;;;;;4963726;28;20357;-35
2023/08/07 01:13:38;;;;;;;2.17;1.20;;;12.30;99.90;;;;;;4947249;28;20197;-34
2023/08/07 01:16:13;;;;;;;1.97;1.43;;;12.30;99.90;;;;;;4975051;28;20187;-35
2023/08/07 01:18:41;;;;;;;1.93;1.60;;;12.30;99.90;;;;;;4949474;28;20187;-33
2023/08/07 01:21:17;;;;;;;2.73;1.30;;;12.20;99.90;;;;;;4956536;28;20295;-35
2023/08/07 01:23:43;;;;;;;1.73;1.40;;;12.20;99.90;;;;;;4957976;28;20330;-33
2023/08/07 01:26:09;;;;;;;3.63;1.30;;;12.20;99.90;;;;;;4948207;28;20256;-35
2023/08/07 01:28:42;;;;;;;2.40;1.30;;;12.20;99.90;;;;;;4964786;28;20180;-35
2023/08/07 01:31:15;;;;;;;2.37;1.10;;;12.20;99.90;;;;;;4956117;28;20219;-35
2023/08/07 01:34:02;;;;;;;3.30;1.50;;;12.20;99.90;;;;;;4976676;28;20198;-33
2023/08/07 01:36:29;;;;;;;2.07;1.37;;;12.20;99.90;;;;;;4956483;28;20222;-33
2023/08/07 01:38:59;;;;;;;1.43;1.20;;;12.10;99.90;;;;;;4959820;28;20193;-34
2023/08/07 01:41:25;;;;;;;1.60;1.33;;;12.10;99.90;;;;;;4964024;28;20249;-35
2023/08/07 01:43:51;;;;;;;4.57;1.70;;;12.00;99.90;;;;;;4955411;28;20191;-34
2023/08/07 01:46:18;;;;;;;2.13;1.43;;;12.00;99.90;;;;;;4954192;28;20190;-35
2023/08/07 01:48:44;;;;;;;2.67;1.50;;;11.90;99.90;;;;;;4956110;28;20229;-35
2023/08/07 01:51:10;;;;;;;1.50;1.37;;;11.90;99.90;;;;;;4955148;28;20244;-35
2023/08/07 01:53:35;;;;;;;1.20;1.10;;;11.90;99.90;;;;;;4971286;28;20191;-35
2023/08/07 01:56:01;;;;;;;1.40;1.30;;;11.90;99.90;;;;;;4956204;28;20187;-36
2023/08/07 01:58:27;;;;;;;3.03;1.70;;;11.80;99.90;;;;;;4954806;28;20387;-33
2023/08/07 02:00:53;;;;;;;1.83;1.43;;;11.80;99.90;;;;;;4949892;28;20227;-34
2023/08/07 02:03:19;;;;;;;1.97;1.40;;;11.80;99.90;;;;;;4961629;28;20192;-34
2023/08/07 02:05:46;;;;;;;2.27;1.60;;;11.80;99.90;;;;;;4955402;28;20214;-33
2023/08/07 02:08:12;;;;;;;2.33;1.20;;;11.70;99.90;;;;;;4955956;28;20187;-35
2023/08/07 02:10:38;;;;;;;1.93;1.37;;;11.70;99.90;;;;;;4963824;28;20211;-34
2023/08/07 02:13:04;;;;;;;1.73;1.30;;;11.70;99.90;;;;;;4970629;28;20186;-35
2023/08/07 02:15:30;;;;;;;2.37;1.50;;;11.70;99.90;;;;;;4953481;28;20212;-35
2023/08/07 02:17:56;;;;;;;1.70;1.40;;;11.70;99.90;;;;;;4955368;28;20192;-35
2023/08/07 02:20:25;;;;;;;1.70;1.57;;;11.70;99.90;;;;;;4955896;28;20228;-33
2023/08/07 02:22:51;;;;;;;2.10;1.53;;;11.70;99.90;;;;;;4971651;28;20181;-35
2023/08/07 02:25:17;;;;;;;3.07;1.43;;;11.70;99.90;;;;;;4970580;28;20264;-33
2023/08/07 02:27:42;;;;;;;2.90;1.47;;;11.70;99.90;;;;;;4954857;28;20193;-35
2023/08/07 02:30:08;;;;;;;3.60;1.40;;;11.70;99.90;;;;;;4954726;28;20208;-34
2023/08/07 02:32:34;;;;;;;3.20;1.33;;;11.70;99.90;;;;;;4966293;28;20224;-35
2023/08/07 02:35:00;;;;;;;2.20;1.50;;;11.70;99.90;;;;;;4959980;28;20216;-33
2023/08/07 02:37:26;;;;;;;4.77;1.60;;;11.70;99.90;;;;;;4970731;28;20245;-35
2023/08/07 02:39:53;;;;;;;3.83;1.43;;;11.70;99.90;;;;;;4971265;28;20207;-35
2023/08/07 02:42:19;;;;;;;2.40;1.50;;;11.80;99.90;;;;;;4962539;28;20187;-35
2023/08/07 02:44:46;;;;;;;3.73;1.50;;;11.80;99.90;;;;;;4963130;28;20182;-35
2023/08/07 02:47:12;;;;;;;1.90;1.43;;;11.80;99.90;;;;;;4955350;28;20191;-35
2023/08/07 02:49:38;;;;;;;1.97;1.20;;;11.80;99.90;;;;;;4954835;28;20304;-35
2023/08/07 02:52:04;;;;;;;1.10;1.00;;;11.70;99.90;;;;;;4970934;28;20249;-35
2023/08/07 02:54:29;;;;;;;2.37;1.60;;;11.70;99.90;;;;;;4970898;28;20185;-33
2023/08/07 02:56:57;;;;;;;3.10;1.60;;;11.70;99.90;;;;;;4953808;28;20266;-35
2023/08/07 02:59:23;;;;;;;2.40;1.30;;;11.70;99.90;;;;;;4954864;28;20208;-35
2023/08/07 03:01:50;;;;;;;3.40;1.60;;;11.70;99.90;;;;;;4954485;28;20199;-33
2023/08/07 03:04:16;;;;;;;1.97;1.43;;;11.70;99.90;;;;;;4954973;28;20191;-33
2023/08/07 03:06:42;;;;;;;3.27;1.70;;;11.70;99.90;;;;;;4970805;28;20187;-35
2023/08/07 03:09:08;;;;;;;5.33;1.67;;;11.70;99.90;;;;;;4955676;28;20192;-33
2023/08/07 03:11:34;;;;;;;4.00;1.60;;;11.70;99.90;;;;;;4951409;28;20198;-35
2023/08/07 03:14:00;;;;;;;2.33;1.43;;;11.70;99.90;;;;;;4970644;28;20197;-34
2023/08/07 03:16:26;;;;;;;3.97;1.53;;;11.60;99.90;;;;;;4956302;28;20195;-33
2023/08/07 03:18:52;;;;;;;1.90;1.20;;;11.60;99.90;;;;;;4966366;28;20282;-34
2023/08/07 03:21:17;;;;;;;1.60;1.40;;;11.60;99.90;;;;;;4961739;28;20204;-35
2023/08/07 03:23:43;;;;;;;3.20;1.80;;;11.50;99.90;;;;;;4947424;28;20237;-34
2023/08/07 03:26:11;;;;;;;1.50;1.30;;;11.50;99.90;;;;;;4954644;28;20182;-33
2023/08/07 03:28:39;;;;;;;3.07;1.43;;;11.50;99.90;;;;;;4969887;28;20223;-33
2023/08/07 03:31:05;;;;;;;3.23;1.57;;;11.50;99.90;;;;;;4951693;28;20206;-33
2023/08/07 03:33:34;;;;;;;2.43;1.40;;;11.40;99.90;;;;;;4977854;28;20275;-34
2023/08/07 03:35:59;;;;;;;1.63;1.20;;;11.40;99.90;;;;;;4953190;28;20271;-34
2023/08/07 03:38:26;;;;;;;2.73;1.50;;;11.30;99.90;;;;;;4953406;28;20192;-34
2023/08/07 03:40:54;;;;;;;3.37;1.60;;;11.40;99.90;;;;;;4957073;28;20231;-33
2023/08/07 03:43:20;;;;;;;2.00;1.50;;;11.30;99.90;;;;;;4954009;28;20187;-34
2023/08/07 03:45:46;;;;;;;3.43;1.60;;;11.30;99.90;;;;;;4955016;28;20190;-35
2023/08/07 03:48:11;;;;;;;3.80;1.43;;;11.30;99.90;;;;;;4958422;28;20231;-34
2023/08/07 03:50:37;;;;;;;2.53;1.30;;;11.20;99.90;;;;;;4958091;28;20285;-34
2023/08/07 03:53:07;;;;;;;2.87;1.37;;;11.20;99.90;;;;;;4957250;28;20190;-34
2023/08/07 03:55:36;;;;;;;2.93;1.70;;;11.10;99.90;;;;;;4958933;28;20191;-34
2023/08/07 03:58:02;;;;;;;2.73;1.43;;;11.10;99.90;;;;;;4957684;28;20186;-33
2023/08/07 04:00:28;;;;;;;3.57;1.63;;;11.10;99.90;;;;;;4957847;28;20308;-33
2023/08/07 04:02:54;;;;;;;2.57;1.37;;;11.00;99.90;;;;;;4957551;28;20280;-35
2023/08/07 04:05:20;;;;;;;3.10;1.60;;;11.00;99.90;;;;;;4965422;28;20214;-35
2023/08/07 04:07:46;;;;;;;3.87;1.70;;;11.00;99.90;;;;;;4950674;28;20359;-35
2023/08/07 04:10:12;;;;;;;5.17;1.57;;;11.00;99.90;;;;;;4957183;28;20232;-35
2023/08/07 04:12:38;;;;;;;3.63;1.70;;;11.00;99.90;;;;;;4956519;28;20190;-35
2023/08/07 04:15:05;;;;;;;3.93;1.63;;;11.00;99.90;;;;;;4957639;28;20184;-35
2023/08/07 04:17:31;;;;;;;2.37;1.47;;;11.00;99.90;;;;;;4957432;28;20197;-35
2023/08/07 04:19:56;;;;;;;4.43;1.40;;;10.90;99.90;;;;;;4962602;28;20204;-35
2023/08/07 04:22:22;;;;;;;2.83;1.67;;;10.90;99.90;;;;;;4959042;28;20196;-35
2023/08/07 04:24:48;;;;;;;3.73;1.50;;;10.90;99.90;;;;;;4957511;28;20204;-34
2023/08/07 04:27:14;;;;;;;6.33;1.73;;;10.80;99.90;;;;;;4956446;28;20182;-34
2023/08/07 04:29:40;;;;;;;2.80;1.70;;;10.90;99.90;;;;;;4969656;28;20222;-33
2023/08/07 04:32:06;;;;;;;3.27;1.40;;;10.90;99.90;;;;;;4957785;28;20223;-33
2023/08/07 04:34:48;;;;;;;2.30;1.60;;;10.90;99.90;;;;;;4974874;28;20198;-35
2023/08/07 04:37:14;;;;;;;2.23;1.63;;;10.90;99.90;;;;;;4992090;28;20182;-34
2023/08/07 04:39:41;;;;;;;2.93;1.63;;;10.90;99.90;;;;;;4977406;28;20216;-34
2023/08/07 04:42:13;;;;;;;1.83;1.67;;;10.80;99.90;;;;;;4996062;28;20186;-32
2023/08/07 04:44:44;;;;;;;2.43;1.57;;;10.80;99.90;;;;;;4963014;28;20197;-33
2023/08/07 04:47:13;;;;;;;2.27;1.70;;;10.70;99.90;;;;;;4981446;28;20185;-33
2023/08/07 04:49:47;;;;;;;3.93;1.60;;;10.80;99.90;;;;;;4969866;28;20202;-33
2023/08/07 04:52:16;;;;;;;2.73;1.80;;;10.70;99.90;;;;;;4979873;28;20205;-34
2023/08/07 04:54:42;;;;;;;2.87;1.70;;;10.80;99.90;;;;;;4957897;28;20185;-34
2023/08/07 04:57:08;;;;;;;3.53;1.70;;;10.80;99.90;;;;;;4972596;28;20244;-34
2023/08/07 04:59:35;;;;;;;4.77;1.87;;;10.80;99.90;;;;;;4952731;28;20203;-34
2023/08/07 05:02:01;;;;;;;3.30;2.00;;;10.80;99.90;;;;;;4954936;28;20222;-34
2023/08/07 05:04:27;;;;;;;2.60;1.40;;;10.80;99.90;;;;;;4955269;28;20177;-34
2023/08/07 05:06:53;;;;;;;2.47;1.70;;;10.80;99.90;;;;;;4954641;28;20186;-36
2023/08/07 05:09:18;;;;;;;2.10;1.70;;;10.80;99.90;;;;;;4969380;28;20213;-34
2023/08/07 05:11:44;;;;;;;2.30;1.60;;;10.80;99.90;;;;;;4952799;28;20212;-34
2023/08/07 05:14:11;;;;;;;1.90;1.50;;;10.90;99.90;;;;;;4970952;28;20279;-34
2023/08/07 05:16:36;;;;;;;2.37;1.40;;;10.90;99.90;;;;;;4953726;28;20206;-33
2023/08/07 05:19:02;;;;;;;2.30;1.70;;;10.90;99.90;;;;;;4955549;28;20220;-33
2023/08/07 05:21:31;;;;;;;2.37;1.57;;;11.00;99.90;;;;;;4955499;28;20241;-33
2023/08/07 05:23:58;;;;;;;5.43;2.63;;;11.00;99.90;;;;;;4952200;28;20296;-33
2023/08/07 05:26:25;;;;;;;4.37;1.60;;;10.90;99.90;;;;;;4950901;28;20181;-33
2023/08/07 05:28:51;;;;;;;2.87;1.67;;;11.00;99.90;;;;;;4951029;28;20197;-33
2023/08/07 05:31:17;;;;;;;4.17;1.83;;;11.00;99.90;;;;;;4955665;28;20229;-34
2023/08/07 05:33:43;;;;;;;2.43;1.60;;;11.10;99.90;;;;;;4948882;28;20186;-34
2023/08/07 05:36:09;;;;;;;2.67;1.60;;;11.10;99.90;;;;;;4952579;28;20209;-34
2023/08/07 05:38:35;;;;;;;1.77;1.50;;;11.10;99.90;;;;;;4949817;28;20206;-34
2023/08/07 05:41:01;;;;;;;2.87;1.77;;;11.20;99.90;;;;;;4952616;28;20207;-34
2023/08/07 05:43:27;;;;;;;4.47;2.07;;;11.20;99.90;;;;;;4962923;28;20228;-34
2023/08/07 05:45:53;;;;;;;4.23;1.90;;;11.20;99.90;;;;;;4961501;28;20187;-31
2023/08/07 05:48:18;;;;;;;3.33;2.10;;;11.30;99.90;;;;;;4961656;28;20316;-32
2023/08/07 05:50:44;;;;;;;2.17;1.60;;;11.40;99.90;;;;;;4956514;28;20243;-33
2023/08/07 05:53:11;;;;;;;5.73;2.07;;;11.50;99.90;;;;;;4975727;28;20186;-37
2023/08/07 05:55:43;;;;;;;3.40;1.70;;;11.50;99.90;;;;;;4960524;28;20188;-34
2023/08/07 05:58:12;;;;;;;2.80;1.70;;;11.50;99.90;;;;;;4977171;28;20182;-35
2023/08/07 06:00:40;;;;;;;2.07;1.73;;;11.60;99.90;;;;;;4972088;28;20279;-35
2023/08/07 06:03:09;;;;;;;3.70;1.80;;;11.70;99.90;;;;;;4972891;28;20183;-35
2023/08/07 06:05:35;;;;;;;3.60;2.00;;;11.70;99.90;;;;;;4969370;28;20221;-35
2023/08/07 06:08:01;;;;;;;3.33;1.80;;;11.80;99.90;;;;;;4957254;28;20188;-34
2023/08/07 06:10:27;;;;;;;2.67;1.80;;;11.90;99.90;;;;;;4972415;28;20202;-36
2023/08/07 06:12:53;;;;;;;2.77;1.67;;;12.00;99.90;;;;;;4958401;28;20188;-35
2023/08/07 06:15:19;;;;;;;3.30;1.90;;;12.10;99.90;;;;;;4951486;28;20195;-35
2023/08/07 06:17:45;;;;;;;2.70;1.83;;;12.10;99.90;;;;;;4953144;28;20223;-35
2023/08/07 06:20:14;;;;;;;2.80;1.70;;;12.20;99.90;;;;;;4958014;28;20208;-34
2023/08/07 06:22:40;;;;;;;3.47;1.77;;;12.30;99.90;;;;;;4971660;28;20179;-33
2023/08/07 06:25:08;;;;;;;2.43;1.87;;;12.30;99.90;;;;;;4969053;28;20183;-33
2023/08/07 06:27:34;;;;;;;2.33;1.70;;;12.40;99.90;;;;;;4961497;28;20184;-35
2023/08/07 06:30:01;;;;;;;4.70;1.70;;;12.50;99.90;;;;;;4960404;28;20207;-34
2023/08/07 06:32:27;;;;;;;3.00;1.70;;;12.60;99.90;;;;;;4971798;28;20270;-34
2023/08/07 06:34:53;;;;;;;2.33;1.63;;;12.70;99.90;;;;;;4982597;28;20183;-34
2023/08/07 06:37:20;;;;;;;2.27;1.50;;;12.80;99.90;;;;;;4976426;28;20649;-33
2023/08/07 06:39:48;;;;;;;2.53;1.70;;;12.90;99.90;;;;;;4971218;28;20232;-34
2023/08/07 06:42:14;;;;;;;2.97;1.47;;;13.00;99.90;;;;;;4961108;28;20181;-34
2023/08/07 06:44:43;;;;;;;3.57;1.70;;;13.10;99.90;;;;;;4963042;28;20192;-33
2023/08/07 06:47:09;;;;;;;2.97;1.60;;;13.20;99.90;;;;;;4952458;28;20197;-33
2023/08/07 06:49:35;;;;;;;2.10;1.50;;;13.30;99.90;;;;;;4961090;28;20211;-34
2023/08/07 06:52:01;;;;;;;4.67;1.80;;;13.40;99.90;;;;;;4957621;28;20215;-36
2023/08/07 06:54:26;;;;;;;3.07;1.40;;;13.50;99.90;;;;;;4961373;28;20180;-36
2023/08/07 06:56:52;;;;;;;1.47;1.30;;;13.60;99.90;;;;;;4962277;28;20217;-34
2023/08/07 06:59:18;;;;;;;3.70;1.97;;;13.60;99.90;;;;;;4954301;28;20209;-34
2023/08/07 07:01:44;;;;;;;2.93;1.63;;;13.70;99.90;;;;;;4960967;28;20222;-34
2023/08/07 07:04:12;;;;;;;2.33;1.70;;;13.80;99.90;;;;;;4961767;28;20192;-34
2023/08/07 07:06:38;;;;;;;2.57;1.40;;;13.90;99.90;;;;;;4957183;28;20203;-34
2023/08/07 07:09:04;;;;;;;2.70;1.40;;;13.90;99.90;;;;;;4970899;28;20191;-34
2023/08/07 07:11:31;;;;;;;3.50;1.50;;;14.00;99.90;;;;;;4956789;28;20266;-34
2023/08/07 07:13:57;;;;;;;3.57;1.87;;;14.00;99.90;;;;;;4960765;28;20204;-34
2023/08/07 07:16:23;;;;;;;2.00;1.73;;;14.10;99.90;;;;;;4956459;28;20208;-36
2023/08/07 07:18:51;;;;;;;2.83;1.60;;;14.10;99.90;;;;;;4972058;28;20197;-35
2023/08/07 07:21:18;;;;;;;2.07;1.40;;;14.10;99.90;;;;;;4956789;28;20216;-37
2023/08/07 07:23:44;;;;;;;2.73;1.70;;;14.10;99.90;;;;;;4959114;28;20192;-34
2023/08/07 07:26:10;;;;;;;2.90;1.60;;;14.10;99.90;;;;;;4962271;28;20193;-34
2023/08/07 07:28:37;;;;;;;3.10;1.57;;;14.20;99.90;;;;;;4974604;28;20200;-35
2023/08/07 07:31:03;;;;;;;1.63;1.47;;;14.20;99.90;;;;;;4958781;28;20263;-35
2023/08/07 07:33:30;;;;;;;1.57;1.47;;;14.30;99.90;;;;;;4981773;28;20272;-34
2023/08/07 07:35:56;;;;;;;3.07;1.57;;;14.30;99.90;;;;;;4968784;28;20184;-36
2023/08/07 07:38:22;;;;;;;1.87;1.30;;;14.40;99.90;;;;;;4960692;28;20191;-35
2023/08/07 07:40:47;;;;;;;2.97;1.67;;;14.40;99.90;;;;;;4977788;28;20212;-35
2023/08/07 07:43:13;;;;;;;3.00;1.93;;;14.40;99.90;;;;;;4977739;28;20189;-34
2023/08/07 07:45:39;;;;;;;2.87;1.70;;;14.40;99.90;;;;;;4965832;28;20192;-35
2023/08/07 07:48:08;;;;;;;2.63;1.13;;;14.50;99.90;;;;;;4961054;28;20195;-34
2023/08/07 07:50:33;;;;;;;2.20;1.53;;;14.50;99.90;;;;;;4960403;28;20207;-35
2023/08/07 07:52:59;;;;;;;2.17;1.53;;;14.50;99.90;;;;;;4956123;28;20196;-37
2023/08/07 07:55:26;;;;;;;2.53;1.80;;;14.70;99.90;;;;;;4958908;28;20189;-35
2023/08/07 07:57:56;;;;;;;1.90;1.60;;;14.90;99.90;;;;;;4958501;28;20189;-37
2023/08/07 08:00:26;;;;;;;1.80;1.40;;;15.20;99.90;;;;;;4979773;28;20235;-36
2023/08/07 08:02:54;;;;;;;2.63;1.40;;;15.40;99.90;;;;;;4973629;28;20187;-36
2023/08/07 08:05:25;;;;;;;1.53;1.30;;;15.50;99.90;;;;;;4972980;28;20184;-39
2023/08/07 08:07:57;;;;;;;3.20;1.10;;;15.50;99.90;;;;;;4958948;28;20271;-35
2023/08/07 08:10:25;;;;;;;2.93;1.60;;;15.50;99.90;;;;;;4956450;28;20192;-35
2023/08/07 08:12:51;;;;;;;1.53;1.33;;;15.40;99.90;;;;;;4957033;28;20243;-34
2023/08/07 08:15:17;;;;;;;2.57;1.20;;;15.50;99.90;;;;;;4969600;28;20519;-36
2023/08/07 08:17:44;;;;;;;1.80;1.40;;;15.60;99.90;;;;;;4956347;28;20184;-36
2023/08/07 08:20:11;;;;;;;2.57;1.30;;;15.80;99.90;;;;;;4976820;28;20227;-36
2023/08/07 08:22:37;;;;;;;1.60;1.50;;;15.90;99.90;;;;;;4980988;28;20294;-34
2023/08/07 08:25:04;;;;;;;1.43;1.20;;;15.80;99.90;;;;;;4952313;28;20205;-37
2023/08/07 08:27:30;;;;;;;3.47;1.57;;;15.70;99.90;;;;;;4970010;28;20184;-34
2023/08/07 08:29:56;;;;;;;1.97;1.50;;;15.80;99.90;;;;;;4966735;28;20208;-34
2023/08/07 08:32:30;;;;;;;2.73;1.20;;;15.90;99.90;;;;;;4963837;28;20272;-36
2023/08/07 08:34:58;;;;;;;2.37;1.33;;;16.00;99.90;;;;;;4974248;28;20180;-35
2023/08/07 08:37:24;;;;;;;3.27;1.60;;;16.00;99.90;;;;;;4974310;28;20215;-34
2023/08/07 08:39:50;;;;;;;1.97;1.27;;;16.00;99.90;;;;;;4957939;28;20248;-33
2023/08/07 08:42:26;;;;;;;2.77;1.70;;;16.00;99.90;;;;;;4973761;28;20176;-34
2023/08/07 08:44:56;;;;;;;1.97;1.30;;;16.20;99.90;;;;;;4978016;28;20270;-34
2023/08/07 08:47:24;;;;;;;1.50;1.30;;;16.40;99.90;;;;;;4973081;28;20196;-33
2023/08/07 08:49:57;;;;;;;1.33;1.10;;;16.60;99.90;;;;;;4956514;28;20279;-33
2023/08/07 08:52:23;;;;;;;1.40;1.30;;;16.80;99.90;;;;;;4956761;28;20208;-33
2023/08/07 08:54:49;;;;;;;3.92;1.20;;;16.90;99.90;;;;;;4973623;28;20196;-33
2023/08/07 08:57:15;;;;;;;2.55;1.30;;;17.00;99.90;;;;;;4976694;28;20177;-33
2023/08/07 08:59:42;;;;;;;1.67;1.40;;;17.20;99.90;;;;;;4957116;28;20300;-33
2023/08/07 09:02:08;;;;;;;1.90;1.30;;;17.50;99.90;;;;;;4963763;28;20188;-33
2023/08/07 09:04:34;;;;;;;2.08;1.35;;;17.70;99.90;;;;;;4972492;28;20196;-33
2023/08/07 09:07:01;;;;;;;1.80;1.25;;;17.90;99.90;;;;;;4960241;28;20188;-33
2023/08/07 09:09:28;;;;;;;3.25;1.50;;;17.90;99.90;;;;;;4966488;28;20255;-34
2023/08/07 09:11:57;;;;;;;2.95;1.10;;;18.00;99.90;;;;;;4964363;28;20204;-33
2023/08/07 09:14:31;;;;;;;2.88;1.50;;;18.10;99.90;;;;;;4961600;28;20173;-33
2023/08/07 09:16:59;;;;;;;3.83;1.73;;;18.10;99.90;;;;;;4956567;28;20180;-33
2023/08/07 09:19:26;;;;;;;2.90;1.45;;;18.20;99.90;;;;;;4969119;28;20200;-33
2023/08/07 09:21:52;;;;;;;1.40;1.30;;;17.80;99.90;;;;;;4961745;28;20196;-34
2023/08/07 09:24:19;;;;;;;1.85;1.35;;;17.90;99.90;;;;;;4976104;28;20181;-35
2023/08/07 09:26:45;;;;;;;5.00;1.88;;;18.20;99.90;;;;;;4965923;28;20214;-33
2023/08/07 09:29:11;;;;;;;2.20;1.27;;;18.30;99.90;;;;;;4962227;28;20228;-34
2023/08/07 09:31:37;;;;;;;1.95;1.50;;;18.50;99.90;;;;;;4956036;28;20229;-33
2023/08/07 09:34:04;;;;;;;3.33;1.70;;;18.70;99.90;;;;;;4957660;28;20208;-33
2023/08/07 09:36:34;;;;;;;1.65;1.15;;;18.60;99.90;;;;;;4973984;28;20243;-35
2023/08/07 09:39:04;;;;;;;2.10;1.30;;;18.70;99.90;;;;;;4974074;28;20192;-36
2023/08/07 09:41:30;;;;;;;2.13;1.20;;;18.80;99.90;;;;;;4969009;28;20284;-35
2023/08/07 09:44:10;;;;;;;1.65;1.20;;;19.00;99.90;;;;;;4982763;28;20193;-34
2023/08/07 09:46:45;;;;;;;1.40;1.25;;;19.10;99.90;;;;;;4981733;28;20292;-35
2023/08/07 09:49:11;;;;;;;2.15;1.23;;;19.40;99.90;;;;;;4968761;28;20247;-35
2023/08/07 09:51:47;;;;;;;1.77;1.10;;;19.50;99.90;;;;;;4975457;28;20215;-36
2023/08/07 09:54:14;;;;;;;1.45;1.10;;;19.30;99.90;;;;;;4971535;28;20634;-35
2023/08/07 09:56:41;;;;;;;1.38;1.25;;;19.20;99.90;;;;;;4958453;28;20180;-34
2023/08/07 09:59:08;;;;;;;3.75;1.40;;;19.00;99.90;;;;;;4974492;28;20260;-37
2023/08/07 10:01:38;;;;;;;1.20;1.00;;;18.80;99.90;;;;;;4958164;28;20236;-35
2023/08/07 10:04:07;;;;;;;2.55;1.20;;;18.90;99.90;;;;;;4965594;28;20238;-34
2023/08/07 10:06:34;;;;;;;1.23;1.13;;;19.00;99.90;;;;;;4985029;28;20180;-37
2023/08/07 10:09:03;;;;;;;1.70;1.33;;;18.90;99.90;;;;;;4984556;28;20180;-34
2023/08/07 10:11:30;;;;;;;2.10;1.27;;;18.80;99.90;;;;;;4965351;28;20214;-36
2023/08/07 10:14:00;;;;;;;2.03;1.17;;;18.80;99.90;;;;;;4968279;28;20235;-36
2023/08/07 10:16:30;;;;;;;1.73;0.95;;;19.00;99.90;;;;;;4963810;28;20184;-33
2023/08/07 10:18:55;;;;;;;2.97;1.10;;;19.10;99.90;;;;;;4965667;28;20188;-34
2023/08/07 10:21:24;;;;;;;1.55;1.10;;;19.10;99.90;;;;;;4961875;28;20192;-35
2023/08/07 10:23:53;;;;;;;1.95;1.02;;;19.00;99.90;;;;;;4955561;28;20267;-35
2023/08/07 10:26:21;;;;;;;1.15;0.90;;;18.50;99.90;;;;;;4958457;28;20267;-33
2023/08/07 10:28:50;;;;;;;2.10;0.98;;;18.20;99.90;;;;;;4961611;28;20193;-33
2023/08/07 10:31:16;;;;;;;1.90;1.20;;;18.40;99.90;;;;;;4958611;28;20208;-35
2023/08/07 10:33:42;;;;;;;2.95;1.00;;;18.50;99.90;;;;;;4971253;28;20187;-35
2023/08/07 10:36:10;;;;;;;2.60;1.20;;;18.40;99.90;;;;;;4955852;28;20188;-35
2023/08/07 10:38:37;;;;;;;1.30;1.20;;;18.50;99.90;;;;;;4952363;28;20295;-34
2023/08/07 10:41:13;;;;;;;1.20;1.00;;;18.60;99.90;;;;;;4955351;28;20223;-35
2023/08/07 10:43:44;;;;;;;3.22;1.15;;;18.80;99.90;;;;;;4954233;28;20184;-38
2023/08/07 10:46:16;;;;;;;1.27;1.00;;;19.00;99.90;;;;;;4949424;28;20184;-35
2023/08/07 10:48:57;;;;;;;1.42;1.08;;;19.10;99.90;;;;;;4952680;28;20259;-35
2023/08/07 10:51:31;;;;;;;3.15;1.00;;;19.10;99.90;;;;;;4970621;28;20200;-35
2023/08/07 10:53:57;;;;;;;1.58;1.13;;;19.00;99.90;;;;;;4969357;28;20222;-35
2023/08/07 10:56:36;;;;;;;1.85;1.20;;;18.90;99.90;;;;;;4976252;28;20193;-33
2023/08/07 10:59:11;;;;;;;1.38;1.10;;;19.00;99.90;;;;;;4958404;28;20176;-35
2023/08/07 11:01:43;;;;;;;1.35;1.10;;;18.90;99.90;;;;;;4958332;28;20188;-34
2023/08/07 11:04:12;;;;;;;1.70;1.20;;;19.00;99.90;;;;;;4967141;28;20167;-34
2023/08/07 11:06:40;;;;;;;2.00;1.10;;;19.00;99.90;;;;;;4977159;28;20690;-36
2023/08/07 11:09:08;;;;;;;1.20;0.90;;;18.80;99.90;;;;;;4950604;28;20184;-35
2023/08/07 11:11:46;;;;;;;1.60;1.20;;;18.70;99.90;;;;;;4969652;28;20208;-35
2023/08/07 11:14:16;;;;;;;1.50;1.20;;;18.70;99.90;;;;;;4947765;28;20215;-36
2023/08/07 11:16:43;;;;;;;1.63;0.90;;;18.50;99.90;;;;;;4954470;28;20185;-35
2023/08/07 11:19:10;;;;;;;1.60;1.33;;;18.30;99.90;;;;;;4954673;28;20259;-34
2023/08/07 11:21:38;;;;;;;1.70;1.15;;;18.40;99.90;;;;;;4984436;28;20180;-35
2023/08/07 11:24:04;;;;;;;1.13;1.02;;;18.40;99.90;;;;;;4954429;28;20275;-34
2023/08/07 11:26:30;;;;;;;1.10;1.00;;;18.40;99.90;;;;;;4971435;28;20274;-34
2023/08/07 11:28:56;;;;;;;1.35;1.20;;;18.40;99.90;;;;;;4953661;28;20281;-34
2023/08/07 11:31:24;;;;;;;2.30;1.40;;;18.00;99.90;;;;;;4956774;28;20271;-35
2023/08/07 11:33:51;;;;;;;2.13;1.17;;;17.60;99.90;;;;;;4958401;28;20260;-35
2023/08/07 11:36:17;;;;;;;1.73;1.27;;;17.50;99.90;;;;;;4952505;28;20191;-34
2023/08/07 11:38:44;;;;;;;1.27;1.15;;;17.50;99.90;;;;;;4959267;28;20184;-36
2023/08/07 11:41:13;;;;;;;2.70;1.30;;;17.50;99.90;;;;;;4973216;28;20200;-35
2023/08/07 11:43:40;;;;;;;2.03;1.30;;;17.60;99.90;;;;;;4971916;28;20209;-35
2023/08/07 11:46:11;;;;;;;1.50;1.20;;;18.00;99.90;;;;;;4972338;28;20215;-35
2023/08/07 11:48:39;;;;;;;1.75;1.20;;;18.40;99.90;;;;;;4954014;28;20181;-36
2023/08/07 11:51:26;;;;;;;2.67;1.23;;;18.50;99.90;;;;;;4946146;28;20204;-35
2023/08/07 11:53:56;;;;;;;1.23;1.02;;;18.50;99.90;;;;;;4969678;28;20257;-35
2023/08/07 11:56:27;;;;;;;1.90;1.33;;;18.40;99.90;;;;;;4937412;28;20228;-35
2023/08/07 11:58:58;;;;;;;1.30;1.20;;;18.20;99.90;;;;;;4966934;28;20227;-35
2023/08/07 12:01:29;;;;;;;1.60;1.20;;;17.80;99.90;;;;;;4969525;28;20197;-34
2023/08/07 12:04:08;;;;;;;2.33;1.73;;;17.60;99.90;;;;;;4974140;28;20181;-34
2023/08/07 12:06:35;;;;;;;2.13;1.40;;;17.60;99.90;;;;;;4945432;28;20211;-34
2023/08/07 12:09:12;;;;;;;1.63;1.40;;;17.40;99.90;;;;;;4973428;28;20192;-33
2023/08/07 12:11:41;;;;;;;1.40;1.10;;;17.30;99.90;;;;;;4964054;28;20208;-34
2023/08/07 12:14:07;;;;;;;3.65;1.20;;;17.20;99.90;;;;;;4957459;28;20192;-34
2023/08/07 12:16:37;;;;;;;1.48;1.20;;;17.20;99.90;;;;;;4956376;28;20192;-34
2023/08/07 12:19:06;;;;;;;2.28;1.50;;;17.20;99.90;;;;;;4953229;28;20185;-34
2023/08/07 12:21:43;;;;;;;1.30;1.20;;;17.20;99.90;;;;;;4960824;28;20184;-34
2023/08/07 12:24:14;;;;;;;1.65;1.30;;;17.20;99.90;;;;;;4970489;28;20192;-34
2023/08/07 12:26:42;;;;;;;1.55;1.13;;;17.10;99.90;;;;;;4970096;28;20189;-34
2023/08/07 12:29:09;;;;;;;1.55;1.25;;;17.10;99.90;;;;;;4972525;28;20188;-33
2023/08/07 12:31:35;;;;;;;1.67;1.55;;;17.20;99.90;;;;;;4955559;28;20252;-34
2023/08/07 12:34:02;;;;;;;2.47;1.50;;;17.30;99.90;;;;;;4956590;28;20506;-37
2023/08/07 12:36:29;;;;;;;1.92;1.38;;;17.40;99.90;;;;;;4956422;28;20173;-34
2023/08/07 12:38:55;;;;;;;1.55;1.40;;;17.50;99.90;;;;;;4971556;28;20252;-35
2023/08/07 12:41:21;;;;;;;2.55;1.58;;;17.60;99.90;;;;;;4969323;28;20219;-35
2023/08/07 12:43:48;;;;;;;1.83;1.40;;;17.70;99.90;;;;;;4971009;28;20200;-34
2023/08/07 12:46:14;;;;;;;1.38;1.27;;;17.80;99.90;;;;;;4970434;28;20185;-34
2023/08/07 12:48:40;;;;;;;4.22;1.40;;;17.90;99.90;;;;;;4950114;28;20191;-35
2023/08/07 12:51:06;;;;;;;2.15;1.60;;;17.80;99.90;;;;;;4949781;28;20209;-34